Time;durP1;ratioP1;P1;durP2;ratioP2;P2;SDS_P1;SDS_P2;PMS_P1;PMS_P2;Temp;Humidity;BMP_temperature;BMP_pressure;BME280_temperature;BME280_humidity;BME280_pressure;Samples;Min_cycle;Max_cycle;Signal;HPM_P1;HPM_P2
2022/07/25 00:00:32;;;;;;;0.50;0.30;;;23.60;99.90;;;;;;5079735;28;20446;-82
2022/07/25 00:02:59;;;;;;;0.50;0.40;;;23.60;99.90;;;;;;5079985;28;20468;-83
2022/07/25 00:05:25;;;;;;;0.50;0.37;;;23.60;99.90;;;;;;5080334;28;20860;-84
2022/07/25 00:07:52;;;;;;;0.70;0.70;;;23.60;99.90;;;;;;5080051;28;20426;-83
2022/07/25 00:10:21;;;;;;;0.50;0.30;;;23.60;99.90;;;;;;5079436;28;21015;-83
2022/07/25 00:12:48;;;;;;;0.50;0.30;;;23.60;99.90;;;;;;5079211;28;20475;-84
2022/07/25 00:15:14;;;;;;;0.50;0.30;;;23.50;99.90;;;;;;5080735;28;20558;-84
2022/07/25 00:17:41;;;;;;;0.50;0.40;;;23.50;99.90;;;;;;5084917;28;20433;-83
2022/07/25 00:20:09;;;;;;;0.50;0.30;;;23.60;99.90;;;;;;5084946;28;20514;-82
2022/07/25 00:22:36;;;;;;;0.50;0.30;;;23.60;99.90;;;;;;5085895;28;20820;-81
2022/07/25 00:25:03;;;;;;;0.50;0.40;;;23.60;99.90;;;;;;5086265;28;20429;-83
2022/07/25 00:27:31;;;;;;;0.50;0.30;;;23.60;99.90;;;;;;5084007;28;20444;-83
2022/07/25 00:29:58;;;;;;;0.50;0.40;;;23.70;99.90;;;;;;5088123;28;20512;-84
2022/07/25 00:32:25;;;;;;;0.93;0.93;;;23.70;99.90;;;;;;5086694;28;20487;-82
2022/07/25 00:34:51;;;;;;;0.50;0.30;;;23.60;99.90;;;;;;5087461;28;20543;-83
2022/07/25 00:37:18;;;;;;;0.50;0.30;;;23.60;99.90;;;;;;5088742;28;20468;-83
2022/07/25 00:39:45;;;;;;;0.50;0.30;;;23.60;99.90;;;;;;5087086;28;20866;-82
2022/07/25 00:42:12;;;;;;;0.50;0.30;;;23.50;99.90;;;;;;5089071;28;20523;-82
2022/07/25 00:44:40;;;;;;;0.50;0.40;;;23.50;99.90;;;;;;5087087;28;20504;-82
2022/07/25 00:47:07;;;;;;;0.50;0.30;;;23.50;99.90;;;;;;5083906;28;20467;-84
2022/07/25 00:49:34;;;;;;;0.50;0.30;;;23.50;99.90;;;;;;5079189;28;20885;-84
2022/07/25 00:52:01;;;;;;;0.50;0.30;;;23.50;99.90;;;;;;5078612;28;20509;-83
2022/07/25 00:54:29;;;;;;;0.50;0.30;;;23.50;99.90;;;;;;5079594;28;20536;-83
2022/07/25 00:56:57;;;;;;;0.50;0.30;;;23.50;99.90;;;;;;5081234;28;20425;-81
2022/07/25 00:59:24;;;;;;;0.60;0.50;;;23.50;99.90;;;;;;5080083;28;20436;-83
2022/07/25 01:01:52;;;;;;;0.50;0.30;;;23.50;99.90;;;;;;5079113;28;20442;-83
2022/07/25 01:04:19;;;;;;;0.50;0.30;;;23.50;99.90;;;;;;5079545;28;20441;-84
2022/07/25 01:06:46;;;;;;;0.50;0.30;;;23.50;99.90;;;;;;5079623;28;20444;-84
2022/07/25 01:09:14;;;;;;;0.50;0.40;;;23.30;99.90;;;;;;5079238;28;20442;-84
2022/07/25 01:11:40;;;;;;;0.50;0.40;;;23.40;99.90;;;;;;5078899;28;20436;-84
2022/07/25 01:14:07;;;;;;;0.70;0.70;;;23.30;99.90;;;;;;5079392;28;20508;-83
2022/07/25 01:16:34;;;;;;;0.70;0.70;;;23.30;99.90;;;;;;5078649;28;20442;-84
2022/07/25 01:19:02;;;;;;;0.50;0.30;;;23.30;99.90;;;;;;5079338;28;20937;-84
2022/07/25 01:21:31;;;;;;;0.50;0.30;;;23.40;99.90;;;;;;5079144;28;20496;-84
2022/07/25 01:23:57;;;;;;;0.50;0.30;;;23.40;99.90;;;;;;5079100;28;20516;-83
2022/07/25 01:26:24;;;;;;;0.50;0.30;;;23.40;99.90;;;;;;5079204;28;20932;-83
2022/07/25 01:28:51;;;;;;;0.50;0.30;;;23.40;99.90;;;;;;5078667;28;20436;-84
2022/07/25 01:31:18;;;;;;;0.50;0.30;;;23.40;99.90;;;;;;5078847;28;20570;-81
2022/07/25 01:33:45;;;;;;;0.50;0.30;;;23.40;99.90;;;;;;5078942;28;20490;-84
2022/07/25 01:36:12;;;;;;;0.50;0.30;;;23.40;99.90;;;;;;5078629;28;20472;-84
2022/07/25 01:38:40;;;;;;;0.50;0.30;;;23.40;99.90;;;;;;5078975;28;20531;-84
2022/07/25 01:41:07;;;;;;;0.50;0.40;;;23.40;99.90;;;;;;5079096;28;20527;-84
2022/07/25 01:43:34;;;;;;;0.50;0.30;;;23.30;99.90;;;;;;5077087;28;21022;-84
2022/07/25 01:46:01;;;;;;;0.50;0.40;;;23.30;99.90;;;;;;5078638;28;20438;-84
2022/07/25 01:48:28;;;;;;;0.50;0.40;;;23.30;99.90;;;;;;5077972;28;20437;-83
2022/07/25 01:50:55;;;;;;;0.50;0.30;;;23.20;99.90;;;;;;5078842;28;20490;-84
2022/07/25 01:53:21;;;;;;;0.50;0.30;;;23.20;99.90;;;;;;5077703;28;20543;-84
2022/07/25 01:55:50;;;;;;;0.60;0.40;;;23.10;99.90;;;;;;5078682;28;20531;-83
2022/07/25 01:58:16;;;;;;;0.67;0.67;;;23.10;99.90;;;;;;5078923;28;20471;-82
2022/07/25 02:00:43;;;;;;;0.50;0.30;;;23.10;99.90;;;;;;5078403;28;20440;-83
2022/07/25 02:06:08;;;;;;;0.50;0.30;;;23.00;99.90;;;;;;5081011;28;20442;-82
2022/07/25 02:08:35;;;;;;;0.50;0.33;;;23.00;99.90;;;;;;5079656;28;20800;-84
2022/07/25 02:11:03;;;;;;;0.70;0.60;;;23.00;99.90;;;;;;5080425;28;20446;-83
2022/07/25 02:13:30;;;;;;;0.50;0.40;;;23.00;99.90;;;;;;5078878;28;20539;-83
2022/07/25 02:15:57;;;;;;;0.50;0.30;;;23.00;99.90;;;;;;5078076;28;20472;-83
2022/07/25 02:18:24;;;;;;;0.50;0.40;;;22.90;99.90;;;;;;5078005;28;20443;-83
2022/07/25 02:20:51;;;;;;;1.90;1.70;;;22.90;99.90;;;;;;5078424;28;20495;-83
2022/07/25 02:23:17;;;;;;;0.50;0.30;;;22.80;99.90;;;;;;5077906;28;20872;-83
2022/07/25 02:25:44;;;;;;;0.50;0.30;;;22.80;99.90;;;;;;5078101;28;20436;-83
2022/07/25 02:28:12;;;;;;;0.60;0.50;;;22.80;99.90;;;;;;5078114;28;20528;-83
2022/07/25 02:30:39;;;;;;;0.60;0.50;;;22.80;99.90;;;;;;5077652;28;20444;-83
2022/07/25 02:33:06;;;;;;;0.60;0.50;;;22.80;99.90;;;;;;5077219;28;20471;-83
2022/07/25 02:35:33;;;;;;;0.50;0.40;;;22.80;99.90;;;;;;5077826;28;20531;-83
2022/07/25 02:38:00;;;;;;;0.50;0.30;;;22.80;99.90;;;;;;5077978;28;20863;-84
2022/07/25 02:40:27;;;;;;;0.50;0.30;;;22.70;99.90;;;;;;5077627;28;20527;-83
2022/07/25 02:42:54;;;;;;;0.50;0.40;;;22.70;99.90;;;;;;5076981;28;20464;-83
2022/07/25 02:45:22;;;;;;;0.50;0.30;;;22.60;99.90;;;;;;5076810;28;20472;-83
2022/07/25 02:47:49;;;;;;;0.50;0.40;;;22.70;99.90;;;;;;5077500;28;20817;-83
2022/07/25 02:50:16;;;;;;;0.50;0.30;;;22.70;99.90;;;;;;5077355;28;20446;-83
2022/07/25 02:52:43;;;;;;;0.97;0.90;;;22.70;99.90;;;;;;5077581;28;20512;-83
2022/07/25 02:55:10;;;;;;;0.50;0.40;;;22.60;99.90;;;;;;5080439;28;20566;-83
2022/07/25 02:57:37;;;;;;;0.70;0.70;;;22.70;99.90;;;;;;5081734;28;20436;-84
2022/07/25 03:00:05;;;;;;;0.63;0.43;;;22.60;99.90;;;;;;5082093;28;20470;-83
2022/07/25 03:02:34;;;;;;;0.50;0.30;;;22.60;99.90;;;;;;5080644;28;20535;-82
2022/07/25 03:05:01;;;;;;;0.50;0.30;;;22.60;99.90;;;;;;5081708;28;20941;-84
2022/07/25 03:07:28;;;;;;;2.50;1.33;;;22.60;99.90;;;;;;5081002;28;20462;-83
2022/07/25 03:09:55;;;;;;;0.50;0.40;;;22.70;99.90;;;;;;5081251;28;20439;-83
2022/07/25 03:12:22;;;;;;;0.60;0.53;;;22.70;99.90;;;;;;5080831;28;20462;-84
2022/07/25 03:14:49;;;;;;;0.50;0.30;;;22.70;99.90;;;;;;5081220;28;20432;-83
2022/07/25 03:17:16;;;;;;;0.50;0.40;;;22.70;99.90;;;;;;5081361;28;20454;-83
2022/07/25 03:19:44;;;;;;;0.50;0.30;;;22.70;99.90;;;;;;5082002;28;20444;-83
2022/07/25 03:22:10;;;;;;;0.50;0.30;;;22.60;99.90;;;;;;5082227;28;20456;-83
2022/07/25 03:24:37;;;;;;;0.50;0.40;;;22.60;99.90;;;;;;5081480;28;20440;-84
2022/07/25 03:27:04;;;;;;;0.50;0.30;;;22.60;99.90;;;;;;5081536;28;20542;-84
2022/07/25 03:29:31;;;;;;;0.50;0.30;;;22.60;99.90;;;;;;5080962;28;20440;-84
2022/07/25 03:31:58;;;;;;;0.50;0.30;;;22.60;99.90;;;;;;5080599;28;20460;-83
2022/07/25 03:34:26;;;;;;;0.97;0.90;;;22.60;99.90;;;;;;5080264;28;20440;-83
2022/07/25 03:36:54;;;;;;;0.50;0.30;;;22.60;99.90;;;;;;5081208;28;20535;-82
2022/07/25 03:39:21;;;;;;;0.50;0.40;;;22.60;99.90;;;;;;5081683;28;20523;-83
2022/07/25 03:41:48;;;;;;;0.50;0.30;;;22.60;99.90;;;;;;5081093;28;20438;-83
2022/07/25 03:44:14;;;;;;;0.50;0.30;;;22.60;99.90;;;;;;5080620;28;20443;-82
2022/07/25 03:46:41;;;;;;;0.50;0.30;;;22.60;99.90;;;;;;5080228;28;20440;-83
2022/07/25 03:49:08;;;;;;;0.50;0.50;;;22.60;99.90;;;;;;5080791;28;20438;-83
2022/07/25 03:51:35;;;;;;;0.50;0.30;;;22.60;99.90;;;;;;5079896;28;20440;-82
2022/07/25 03:54:04;;;;;;;0.50;0.30;;;22.70;99.90;;;;;;5080093;28;20534;-81
2022/07/25 03:56:33;;;;;;;0.50;0.40;;;22.70;99.90;;;;;;5078419;28;20845;-83
2022/07/25 03:59:00;;;;;;;0.50;0.40;;;22.70;99.90;;;;;;5079097;28;20504;-84
2022/07/25 04:01:27;;;;;;;0.50;0.30;;;22.70;99.90;;;;;;5078571;28;20531;-83
2022/07/25 04:03:53;;;;;;;0.50;0.30;;;22.70;99.90;;;;;;5078818;28;20464;-83
2022/07/25 04:06:22;;;;;;;0.50;0.33;;;22.70;99.90;;;;;;5057706;28;20798;-84
2022/07/25 04:08:49;;;;;;;0.50;0.30;;;22.70;99.90;;;;;;5058496;28;20441;-81
2022/07/25 04:11:17;;;;;;;0.50;0.30;;;22.70;99.90;;;;;;5058163;28;20444;-82
2022/07/25 04:13:44;;;;;;;0.50;0.30;;;22.80;99.90;;;;;;5058797;28;20517;-83
2022/07/25 04:16:12;;;;;;;0.67;0.67;;;22.80;99.90;;;;;;5058540;28;20499;-83
2022/07/25 04:18:38;;;;;;;0.50;0.40;;;22.90;99.90;;;;;;5058590;28;20445;-84
2022/07/25 04:21:06;;;;;;;0.50;0.40;;;23.00;99.90;;;;;;5058561;28;20505;-81
2022/07/25 04:23:33;;;;;;;0.80;0.50;;;23.00;99.90;;;;;;5058358;28;20457;-84
2022/07/25 04:26:00;;;;;;;1.47;1.37;;;23.10;99.90;;;;;;5058239;28;20459;-83
2022/07/25 04:28:28;;;;;;;0.50;0.30;;;23.20;99.90;;;;;;5058464;28;20514;-83
2022/07/25 04:30:55;;;;;;;0.50;0.30;;;23.20;99.90;;;;;;5057875;28;21035;-83
2022/07/25 04:33:22;;;;;;;0.50;0.30;;;23.40;99.90;;;;;;5055907;28;20826;-83
2022/07/25 04:35:49;;;;;;;0.50;0.30;;;23.50;99.90;;;;;;5054935;28;20475;-83
2022/07/25 04:38:16;;;;;;;0.50;0.30;;;23.50;99.90;;;;;;5055454;28;20540;-83
2022/07/25 04:40:43;;;;;;;2.17;1.00;;;23.60;99.90;;;;;;5054962;28;20441;-82
2022/07/25 04:43:10;;;;;;;0.50;0.40;;;23.60;99.90;;;;;;5055398;28;20469;-82
2022/07/25 04:45:39;;;;;;;0.93;0.93;;;23.70;99.90;;;;;;5056785;28;20436;-82
2022/07/25 04:48:06;;;;;;;0.60;0.50;;;23.70;99.90;;;;;;5055436;28;20444;-82
2022/07/25 04:50:33;;;;;;;0.50;0.30;;;23.80;99.90;;;;;;5056247;28;20455;-82
2022/07/25 04:53:00;;;;;;;0.57;0.43;;;23.90;99.90;;;;;;5055287;28;20453;-81
2022/07/25 04:55:27;;;;;;;1.13;1.07;;;23.90;99.90;;;;;;5055036;28;20972;-81
2022/07/25 04:57:54;;;;;;;0.50;0.40;;;23.80;99.90;;;;;;5055302;28;20448;-82
2022/07/25 05:00:22;;;;;;;0.60;0.50;;;23.70;99.90;;;;;;5055494;28;21025;-83
2022/07/25 05:02:51;;;;;;;1.30;1.07;;;23.70;99.90;;;;;;5054814;28;20834;-81
2022/07/25 05:05:18;;;;;;;1.63;1.37;;;23.80;99.90;;;;;;5055187;28;20437;-81
2022/07/25 05:07:45;;;;;;;0.50;0.40;;;23.80;99.90;;;;;;5054691;28;20441;-81
2022/07/25 05:10:12;;;;;;;1.63;1.53;;;23.90;99.90;;;;;;5055228;28;20468;-82
2022/07/25 05:12:39;;;;;;;0.50;0.30;;;23.90;99.90;;;;;;5054567;28;20544;-80
2022/07/25 05:15:07;;;;;;;0.50;0.40;;;24.00;99.90;;;;;;5054857;28;20441;-81
2022/07/25 05:17:33;;;;;;;0.50;0.50;;;24.00;99.90;;;;;;5055145;28;20852;-81
2022/07/25 05:20:02;;;;;;;0.70;0.70;;;24.10;99.90;;;;;;5055851;28;20529;-83
2022/07/25 05:22:28;;;;;;;0.70;0.63;;;24.10;99.90;;;;;;5055901;28;20548;-81
2022/07/25 05:24:55;;;;;;;0.50;0.40;;;24.20;99.90;;;;;;5056178;28;20535;-83
2022/07/25 05:27:22;;;;;;;1.90;1.80;;;24.30;99.90;;;;;;5055629;28;20440;-79
2022/07/25 05:29:49;;;;;;;0.60;0.50;;;24.40;99.90;;;;;;5054628;28;20480;-82
2022/07/25 05:32:16;;;;;;;0.50;0.30;;;24.50;99.90;;;;;;5055293;28;20544;-83
2022/07/25 05:34:42;;;;;;;0.50;0.40;;;24.60;99.90;;;;;;5055549;28;20544;-81
2022/07/25 05:37:11;;;;;;;0.83;0.57;;;24.70;99.90;;;;;;5056684;28;20473;-83
2022/07/25 05:39:39;;;;;;;0.50;0.40;;;24.80;99.90;;;;;;5056011;28;20443;-84
2022/07/25 05:42:06;;;;;;;1.33;0.70;;;24.90;99.90;;;;;;5054067;28;20461;-82
2022/07/25 05:44:32;;;;;;;0.50;0.40;;;25.00;99.90;;;;;;5055153;28;20451;-84
2022/07/25 05:46:59;;;;;;;0.50;0.40;;;25.00;99.90;;;;;;5056987;28;20960;-83
2022/07/25 05:49:26;;;;;;;0.50;0.30;;;25.00;99.90;;;;;;5055669;28;20451;-83
2022/07/25 05:51:53;;;;;;;0.60;0.60;;;25.10;99.90;;;;;;5055228;28;20520;-82
2022/07/25 05:54:22;;;;;;;0.50;0.30;;;25.10;99.90;;;;;;5055765;28;20904;-83
2022/07/25 05:56:48;;;;;;;0.50;0.40;;;25.10;99.90;;;;;;5056276;28;20467;-83
2022/07/25 05:59:15;;;;;;;0.50;0.30;;;25.10;99.90;;;;;;5054782;28;20441;-83
2022/07/25 06:01:42;;;;;;;1.67;1.57;;;25.10;99.90;;;;;;5054661;28;20504;-82
2022/07/25 06:04:09;;;;;;;0.50;0.40;;;25.20;99.90;;;;;;5054740;28;20532;-85
2022/07/25 06:06:35;;;;;;;0.50;0.40;;;25.20;99.90;;;;;;5054795;28;20444;-84
2022/07/25 06:09:02;;;;;;;0.50;0.40;;;25.20;99.90;;;;;;5053982;28;20440;-84
2022/07/25 06:11:30;;;;;;;0.50;0.40;;;25.10;99.90;;;;;;5055558;28;20441;-84
2022/07/25 06:13:58;;;;;;;0.50;0.30;;;25.10;99.90;;;;;;5056594;28;20453;-83
2022/07/25 06:16:25;;;;;;;0.70;0.60;;;25.20;99.90;;;;;;5054413;28;20473;-84
2022/07/25 06:18:52;;;;;;;0.50;0.30;;;25.30;99.90;;;;;;5054995;28;20450;-84
2022/07/25 06:21:18;;;;;;;1.00;0.70;;;25.40;99.90;;;;;;5056657;28;20436;-82
2022/07/25 06:23:45;;;;;;;0.50;0.30;;;25.40;99.90;;;;;;5057696;28;20495;-82
2022/07/25 06:26:12;;;;;;;0.50;0.30;;;25.40;99.90;;;;;;5059448;28;20449;-83
2022/07/25 06:28:40;;;;;;;0.50;0.30;;;25.30;99.90;;;;;;5054613;28;20440;-84
2022/07/25 06:31:07;;;;;;;0.50;0.40;;;25.70;99.90;;;;;;5057113;28;20934;-82
2022/07/25 06:33:34;;;;;;;0.50;0.30;;;26.60;99.90;;;;;;5057210;28;20468;-82
2022/07/25 06:36:01;;;;;;;0.50;0.40;;;27.10;99.90;;;;;;5057676;28;20433;-84
2022/07/25 06:38:28;;;;;;;1.33;1.23;;;27.70;97.60;;;;;;5056651;28;20437;-84
2022/07/25 06:40:55;;;;;;;0.50;0.30;;;28.20;92.40;;;;;;5054694;28;20449;-83
2022/07/25 06:43:21;;;;;;;0.70;0.70;;;28.50;91.40;;;;;;5054399;28;20861;-81
2022/07/25 06:45:50;;;;;;;0.70;0.40;;;29.20;89.40;;;;;;5053519;28;20433;-82
2022/07/25 06:48:17;;;;;;;0.50;0.30;;;30.00;84.90;;;;;;5056404;28;20524;-84
2022/07/25 06:50:44;;;;;;;0.50;0.30;;;30.40;81.10;;;;;;5054518;28;20810;-82
2022/07/25 06:53:11;;;;;;;1.77;1.67;;;30.70;79.60;;;;;;5054577;28;20552;-82
2022/07/25 06:55:38;;;;;;;0.70;0.50;;;30.60;80.30;;;;;;5054466;28;20849;-84
2022/07/25 06:58:05;;;;;;;0.50;0.40;;;30.40;76.60;;;;;;5055752;28;20481;-81
2022/07/25 07:00:32;;;;;;;0.60;0.60;;;29.90;77.10;;;;;;5055679;28;20536;-83
2022/07/25 07:03:02;;;;;;;0.50;0.30;;;29.40;78.20;;;;;;5054338;28;20457;-82
2022/07/25 07:05:30;;;;;;;2.03;1.77;;;29.20;80.50;;;;;;5044655;28;20462;-84
2022/07/25 07:07:57;;;;;;;0.57;0.50;;;29.20;79.40;;;;;;5049049;28;20441;-84
2022/07/25 07:10:26;;;;;;;0.50;0.43;;;28.90;80.00;;;;;;5058326;28;20459;-85
2022/07/25 07:13:03;;;;;;;1.80;1.43;;;29.00;82.10;;;;;;5057663;28;20477;-85
2022/07/25 07:15:30;;;;;;;0.50;0.37;;;29.70;80.90;;;;;;5056380;28;20512;-85
2022/07/25 07:17:57;;;;;;;0.83;0.83;;;30.40;81.40;;;;;;5055352;28;20552;-86
2022/07/25 07:20:25;;;;;;;0.50;0.30;;;31.00;75.20;;;;;;5051924;28;21001;-85
2022/07/25 07:22:52;;;;;;;0.53;0.43;;;31.50;74.50;;;;;;5056333;28;20854;-84
2022/07/25 07:25:20;;;;;;;0.97;0.83;;;32.60;71.60;;;;;;5055057;28;20444;-86
2022/07/25 07:27:47;;;;;;;1.50;0.60;;;33.60;67.90;;;;;;5055514;28;20433;-85
2022/07/25 07:30:14;;;;;;;0.50;0.40;;;33.50;65.20;;;;;;5055727;28;20503;-86
2022/07/25 07:32:41;;;;;;;1.80;1.70;;;33.00;68.50;;;;;;5055383;28;20461;-82
2022/07/25 07:35:10;;;;;;;2.03;1.17;;;33.40;64.80;;;;;;5056123;28;20433;-85
2022/07/25 07:37:38;;;;;;;1.53;1.20;;;34.00;63.20;;;;;;5055067;28;20476;-85
2022/07/25 07:40:05;;;;;;;0.50;0.30;;;33.70;62.10;;;;;;5054902;28;20445;-85
2022/07/25 07:42:38;;;;;;;2.83;1.53;;;33.10;63.00;;;;;;5057578;28;20477;-86
2022/07/25 07:45:11;;;;;;;1.53;0.90;;;32.80;63.40;;;;;;5058713;28;20444;-86
2022/07/25 07:47:38;;;;;;;1.37;1.27;;;32.60;64.00;;;;;;5059138;28;20452;-86
2022/07/25 07:50:05;;;;;;;0.60;0.40;;;32.70;64.10;;;;;;5057880;28;20463;-86
2022/07/25 07:52:32;;;;;;;0.50;0.37;;;33.60;64.10;;;;;;5058312;28;20970;-86
2022/07/25 07:57:45;;;;;;;1.40;1.30;;;33.90;62.70;;;;;;5057914;28;20472;-84
2022/07/25 08:00:13;;;;;;;0.50;0.30;;;33.20;62.60;;;;;;5058041;28;20472;-84
2022/07/25 08:02:44;;;;;;;1.13;1.03;;;32.80;63.70;;;;;;5057831;28;20467;-84
2022/07/25 08:05:11;;;;;;;0.50;0.30;;;32.30;65.10;;;;;;5058599;28;20451;-85
2022/07/25 08:07:38;;;;;;;0.83;0.83;;;31.50;66.30;;;;;;5059281;28;20837;-86
2022/07/25 08:10:07;;;;;;;1.10;1.00;;;30.70;66.90;;;;;;5058923;28;20433;-85
2022/07/25 08:12:39;;;;;;;0.67;0.67;;;30.50;68.90;;;;;;5057476;28;20544;-87
2022/07/25 08:15:06;;;;;;;0.90;0.60;;;30.70;69.70;;;;;;5058697;28;20447;-85
2022/07/25 08:17:33;;;;;;;0.97;0.70;;;30.70;69.70;;;;;;5058160;28;20546;-84
2022/07/25 08:20:05;;;;;;;1.73;1.07;;;30.90;70.90;;;;;;5058522;28;20505;-86
2022/07/25 08:22:36;;;;;;;0.60;0.50;;;31.10;71.00;;;;;;5058511;28;20515;-87
2022/07/25 08:25:03;;;;;;;2.60;0.93;;;31.90;69.50;;;;;;5057876;28;20449;-85
2022/07/25 08:27:32;;;;;;;1.23;1.13;;;32.30;67.30;;;;;;5058165;28;20469;-86
2022/07/25 08:30:00;;;;;;;1.60;1.13;;;32.30;67.00;;;;;;5057990;28;20476;-86
2022/07/25 08:32:27;;;;;;;0.80;0.80;;;32.10;67.00;;;;;;5058333;28;20493;-86
2022/07/25 08:34:54;;;;;;;6.00;1.40;;;31.50;68.20;;;;;;5058836;28;20444;-86
2022/07/25 08:37:21;;;;;;;0.60;0.40;;;31.20;69.30;;;;;;5057482;28;20476;-86
2022/07/25 08:39:48;;;;;;;0.50;0.40;;;31.20;70.10;;;;;;5057550;28;20966;-86
2022/07/25 08:42:15;;;;;;;0.50;0.40;;;31.40;69.00;;;;;;5057587;28;20457;-86
2022/07/25 08:44:49;;;;;;;1.23;1.13;;;31.20;69.50;;;;;;5058455;28;20502;-83
2022/07/25 08:47:17;;;;;;;1.03;0.67;;;31.20;69.60;;;;;;5058259;28;20475;-85
2022/07/25 08:49:44;;;;;;;1.63;0.97;;;31.10;69.60;;;;;;5057982;28;20476;-87
2022/07/25 08:52:11;;;;;;;0.50;0.30;;;30.80;69.40;;;;;;5056389;28;20496;-85
2022/07/25 08:54:38;;;;;;;1.97;1.07;;;30.60;71.40;;;;;;5059009;28;20477;-86
2022/07/25 08:57:05;;;;;;;0.53;0.47;;;30.10;71.30;;;;;;5058968;28;20536;-83
2022/07/25 08:59:32;;;;;;;0.50;0.30;;;29.50;72.90;;;;;;5058912;28;20520;-86
2022/07/25 09:02:02;;;;;;;1.20;0.93;;;29.40;74.30;;;;;;5058908;28;20529;-87
2022/07/25 09:04:30;;;;;;;0.50;0.40;;;29.70;75.10;;;;;;5059996;28;20418;-82
2022/07/25 09:06:56;;;;;;;1.27;1.17;;;29.60;75.00;;;;;;5059138;28;20433;-87
2022/07/25 09:09:31;;;;;;;0.60;0.50;;;29.90;76.00;;;;;;5058905;28;20553;-84
2022/07/25 09:11:58;;;;;;;0.60;0.50;;;31.50;73.30;;;;;;5058465;28;20973;-85
2022/07/25 09:14:25;;;;;;;2.60;2.50;;;33.30;69.00;;;;;;5059134;28;20472;-85
2022/07/25 09:16:53;;;;;;;1.10;1.00;;;34.40;64.90;;;;;;5059404;28;20508;-85
2022/07/25 09:19:23;;;;;;;1.47;0.60;;;35.40;62.20;;;;;;5059639;28;20441;-85
2022/07/25 09:22:01;;;;;;;1.07;0.70;;;36.60;60.70;;;;;;5059033;28;20472;-86
2022/07/25 09:24:29;;;;;;;0.50;0.30;;;37.10;58.20;;;;;;5059871;28;20976;-85
2022/07/25 09:26:58;;;;;;;0.50;0.40;;;37.20;58.70;;;;;;5059397;28;20480;-85
2022/07/25 09:29:27;;;;;;;0.77;0.77;;;37.60;57.50;;;;;;5059179;28;20457;-85
2022/07/25 09:31:56;;;;;;;0.73;0.73;;;37.70;56.40;;;;;;5058748;28;20468;-86
2022/07/25 09:34:33;;;;;;;1.57;1.53;;;37.60;56.10;;;;;;5059401;28;20468;-85
2022/07/25 09:37:00;;;;;;;2.40;1.60;;;36.60;56.70;;;;;;5059031;28;20518;-86
2022/07/25 09:39:40;;;;;;;0.50;0.30;;;36.00;57.30;;;;;;5059333;28;20532;-86
2022/07/25 09:42:24;;;;;;;0.50;0.30;;;36.20;58.00;;;;;;5059315;28;20543;-86
2022/07/25 09:44:59;;;;;;;0.70;0.50;;;37.30;57.50;;;;;;5059015;28;20881;-83
2022/07/25 09:47:26;;;;;;;0.60;0.60;;;38.10;55.90;;;;;;5058053;28;20528;-86
2022/07/25 09:49:54;;;;;;;2.50;1.53;;;38.60;54.70;;;;;;5059242;28;20528;-82
2022/07/25 09:52:21;;;;;;;1.80;1.63;;;38.30;54.60;;;;;;5058731;28;20552;-86
2022/07/25 09:54:48;;;;;;;0.80;0.80;;;38.00;55.40;;;;;;5059510;28;20544;-85
2022/07/25 09:57:15;;;;;;;0.50;0.50;;;36.50;55.80;;;;;;5061545;28;20516;-83
2022/07/25 09:59:43;;;;;;;1.47;1.10;;;35.90;57.30;;;;;;5061814;28;20437;-86
2022/07/25 10:02:16;;;;;;;0.70;0.70;;;35.50;57.60;;;;;;5060064;28;20467;-84
2022/07/25 10:04:51;;;;;;;3.30;0.70;;;34.70;58.50;;;;;;5058635;28;20453;-84
2022/07/25 10:07:21;;;;;;;0.50;0.50;;;33.60;59.80;;;;;;5060541;28;20596;-85
2022/07/25 10:09:50;;;;;;;0.93;0.57;;;32.70;61.60;;;;;;5060094;28;20448;-84
2022/07/25 10:12:20;;;;;;;0.67;0.67;;;32.00;63.90;;;;;;5059304;28;20547;-85
2022/07/25 10:15:05;;;;;;;0.50;0.50;;;31.60;65.90;;;;;;5060497;28;21058;-84
2022/07/25 10:17:33;;;;;;;0.77;0.77;;;31.40;66.60;;;;;;5059978;28;20461;-84
2022/07/25 10:20:00;;;;;;;0.70;0.50;;;30.80;67.70;;;;;;5059097;28;20501;-82
2022/07/25 10:22:41;;;;;;;0.60;0.50;;;30.10;68.70;;;;;;5058322;28;20464;-84
2022/07/25 10:25:12;;;;;;;0.60;0.40;;;29.40;71.20;;;;;;5059169;28;20433;-84
2022/07/25 10:27:47;;;;;;;0.50;0.30;;;29.20;72.50;;;;;;5059980;28;20433;-85
2022/07/25 10:30:21;;;;;;;1.57;1.03;;;29.00;73.10;;;;;;5058792;28;20436;-85
2022/07/25 10:32:56;;;;;;;1.47;1.37;;;28.90;73.10;;;;;;5058512;28;20465;-84
2022/07/25 10:35:24;;;;;;;0.50;0.30;;;28.90;74.00;;;;;;5059534;28;20504;-83
2022/07/25 10:37:55;;;;;;;0.50;0.40;;;29.20;72.80;;;;;;5058894;28;20484;-82
2022/07/25 10:40:32;;;;;;;1.10;0.70;;;29.90;71.40;;;;;;5059259;28;20822;-85
2022/07/25 10:43:07;;;;;;;1.13;1.03;;;30.80;69.70;;;;;;5057977;28;20547;-86
2022/07/25 10:45:39;;;;;;;0.87;0.87;;;30.70;67.50;;;;;;5058829;28;20424;-84
2022/07/25 10:48:11;;;;;;;0.70;0.70;;;30.50;67.00;;;;;;5058932;28;20432;-85
2022/07/25 10:50:57;;;;;;;0.50;0.30;;;30.50;66.90;;;;;;5058924;28;20473;-86
2022/07/25 10:53:37;;;;;;;0.70;0.60;;;31.60;67.30;;;;;;5058252;28;20495;-86
2022/07/25 10:56:06;;;;;;;0.50;0.30;;;33.00;65.20;;;;;;5058421;28;20471;-85
2022/07/25 10:58:48;;;;;;;0.50;0.40;;;34.40;61.80;;;;;;5058665;28;20526;-85
2022/07/25 11:01:21;;;;;;;0.50;0.40;;;36.10;58.70;;;;;;5059409;28;20448;-84
2022/07/25 11:03:48;;;;;;;0.97;0.97;;;35.80;56.30;;;;;;5059073;28;21048;-85
2022/07/25 11:06:16;;;;;;;0.90;0.90;;;35.80;56.10;;;;;;5058547;28;20942;-86
2022/07/25 11:08:44;;;;;;;1.63;0.80;;;35.40;55.10;;;;;;5058937;28;21093;-86
2022/07/25 11:11:12;;;;;;;0.50;0.50;;;34.70;56.80;;;;;;5053830;28;20536;-84
2022/07/25 11:13:40;;;;;;;0.73;0.73;;;34.90;57.10;;;;;;5058586;28;20465;-84
2022/07/25 11:16:09;;;;;;;0.50;0.30;;;35.30;56.50;;;;;;5062302;28;20452;-86
2022/07/25 11:18:37;;;;;;;1.70;1.53;;;35.80;56.80;;;;;;5063235;28;20543;-84
2022/07/25 11:21:06;;;;;;;0.70;0.60;;;36.60;55.30;;;;;;5062307;28;20528;-86
2022/07/25 11:23:33;;;;;;;0.50;0.30;;;35.80;54.50;;;;;;5061236;28;20545;-84
2022/07/25 11:26:12;;;;;;;0.50;0.30;;;35.30;56.50;;;;;;5060746;28;20484;-85
2022/07/25 11:28:44;;;;;;;0.40;0.30;;;35.40;56.40;;;;;;5060622;28;20543;-86
2022/07/25 11:31:12;;;;;;;1.60;1.60;;;35.90;57.00;;;;;;5060984;28;20487;-81
2022/07/25 11:33:40;;;;;;;0.50;0.50;;;36.10;55.00;;;;;;5055650;28;20511;-87
2022/07/25 11:36:08;;;;;;;3.07;2.97;;;36.10;55.00;;;;;;5047883;28;20532;-87
2022/07/25 11:38:36;;;;;;;0.50;0.30;;;36.40;54.90;;;;;;5058196;28;20472;-84
2022/07/25 11:41:03;;;;;;;0.50;0.50;;;36.20;54.70;;;;;;5058749;28;20472;-86
2022/07/25 11:43:31;;;;;;;0.50;0.30;;;36.00;54.50;;;;;;5050194;28;20977;-84
2022/07/25 11:46:01;;;;;;;1.57;1.47;;;35.40;55.40;;;;;;5044272;28;20513;-86
2022/07/25 11:48:33;;;;;;;0.60;0.40;;;34.50;56.20;;;;;;5050746;28;20620;-84
2022/07/25 11:51:10;;;;;;;0.50;0.30;;;33.60;57.30;;;;;;5047305;28;20502;-85
2022/07/25 11:53:42;;;;;;;6.43;1.00;;;32.90;59.50;;;;;;5037544;28;20548;-85
2022/07/25 11:56:14;;;;;;;0.50;0.30;;;33.40;59.40;;;;;;5037526;28;20438;-85
2022/07/25 11:58:43;;;;;;;0.50;0.30;;;33.90;59.10;;;;;;5037783;28;20484;-86
2022/07/25 12:01:14;;;;;;;0.50;0.30;;;34.40;58.60;;;;;;5037358;28;20878;-85
2022/07/25 12:03:42;;;;;;;0.70;0.70;;;34.50;58.80;;;;;;5037309;28;20544;-85
2022/07/25 12:06:10;;;;;;;0.50;0.40;;;34.30;58.20;;;;;;5037263;28;20450;-84
2022/07/25 12:08:39;;;;;;;0.50;0.30;;;33.50;58.60;;;;;;5037230;28;20946;-85
2022/07/25 12:11:20;;;;;;;1.03;0.90;;;33.10;61.10;;;;;;5037144;28;20745;-83
2022/07/25 12:13:49;;;;;;;0.53;0.47;;;32.50;60.40;;;;;;5037206;28;20537;-84
2022/07/25 12:16:16;;;;;;;1.67;1.17;;;32.10;62.50;;;;;;5037458;28;20949;-84
2022/07/25 12:18:43;;;;;;;1.23;1.07;;;31.50;63.00;;;;;;5036893;28;20974;-84
2022/07/25 12:21:10;;;;;;;0.50;0.30;;;31.20;64.90;;;;;;5036674;28;20795;-84
2022/07/25 12:23:40;;;;;;;0.50;0.30;;;31.10;66.20;;;;;;5036924;28;20490;-84
2022/07/25 12:26:08;;;;;;;0.50;0.30;;;31.10;66.20;;;;;;5037531;28;20427;-85
2022/07/25 12:28:34;;;;;;;0.50;0.30;;;31.10;67.30;;;;;;5036645;28;20506;-84
2022/07/25 12:31:03;;;;;;;1.00;0.90;;;31.10;67.70;;;;;;5037073;28;20525;-84
2022/07/25 12:33:31;;;;;;;0.50;0.30;;;31.00;68.00;;;;;;5036497;28;20520;-85
2022/07/25 12:35:58;;;;;;;0.50;0.40;;;31.20;69.30;;;;;;5037034;28;20794;-83
2022/07/25 12:38:25;;;;;;;0.50;0.30;;;32.00;66.60;;;;;;5037215;28;20481;-85
2022/07/25 12:40:53;;;;;;;0.50;0.40;;;32.90;65.40;;;;;;5039587;28;20476;-84
2022/07/25 12:43:20;;;;;;;0.50;0.30;;;33.50;64.40;;;;;;5037025;28;20541;-83
2022/07/25 12:45:47;;;;;;;0.57;0.53;;;33.50;62.80;;;;;;5037414;28;20521;-82
2022/07/25 12:48:15;;;;;;;1.13;0.50;;;33.20;63.80;;;;;;5036787;28;20464;-83
2022/07/25 12:50:43;;;;;;;0.50;0.50;;;32.80;64.20;;;;;;5037918;28;20465;-85
2022/07/25 12:53:12;;;;;;;1.30;0.60;;;32.30;66.00;;;;;;5037679;28;20458;-84
2022/07/25 12:55:39;;;;;;;0.70;0.47;;;31.60;66.10;;;;;;5035263;28;20458;-83
2022/07/25 12:58:07;;;;;;;0.60;0.40;;;30.90;67.80;;;;;;5035404;28;20473;-84